SBRBHUEN

Guest
Details From SBRB - Presidente Medici
To HUEN - Entebbe Intl
Flight Number -
Tags Generated
Created
Modified
Stats Distance 6,018 nm / 11,145 km
Max Altitude 0 ft / 0 m
Waypoints 3
Social Downloads 0
Likes 0
Share VATSIM

Download

Looking for another format? Having issues loading an existing format? Contact us
Advertisement - Login to hide

Notes

Generated

Route

SBRB NN HUEN

ID Type Via Altitude Latitude Longitude Leg Dist Tot Dist Heading (true) Name
O SBRB APT - 0 ft / 0 m -9.87446˚ -67.90237˚ - 0 nm - -
NN VOR - 0 ft / 0 m 0.05300˚ 32.43800˚ 6017 nm 6017 nm 92° / 80° ENTEBBE VOR-DME
O HUEN APT - 0 ft / 0 m 0.05123˚ 32.43912˚ 0 nm 6017 nm 148° / 148° -

Altitude Profile

Advertisement - Login to hide

Weather


0- 5 10 15 20 25 30 35+ Temperature / ° C

Clouds and Precipitation
Forecast for 2018-05-23 12:00 UTC. Updated 4 hours ago

Ground ~20,000 ft ~40,000 ft Winds

SBRB

Details ICAO SBRB (RBR)
Name Presidente Medici
Region Brazil
Timezone America/Rio_Branco (UTC-5.0)
Stats Elevation 634 ft / 193 m (AMSL)
Location -9.869157° -67.894072°
Runways 1
Magnetic Variation 9.760° W

METAR

SBRB 231500Z 15008KT CAVOK 26/17 Q1018

Decode

TAF

TAF SBRB 231000Z 2312/2412 18005KT 9999 FEW010 TX30/2317Z TN21/2408Z BECMG 2315/2317 15005KT SCT025 BECMG 2322/2324 03003KT CAVOK RMK PEH

Decode

Departure Runways

ID Width Length Bearing (true) Bearing (mag) Surface Threshold Offset Overrun Length
06 148 ft / 45 m 7,115 ft / 2,169 m 57.02° 66.78° Asphalt 0 ft / 0 m 120 ft / 37 m
24 148 ft / 45 m 7,115 ft / 2,169 m 237.01° 246.77° Asphalt 0 ft / 0 m 180 ft / 55 m

HUEN

Details ICAO HUEN (EBB)
Name ENTEBBE INTL
Region Uganda
Timezone Africa/Kampala (UTC+3.0)
Stats Elevation 3,782 ft / 1,153 m (AMSL)
Location 0.042386° 32.443504°
Runways 2
Magnetic Variation 1.555° E

METAR

HUEN 231430Z 18010KT 9999 FEW020 FEW022CB 22/19 Q1016 NOSIG

Decode

TAF

TAF HUEN 231100Z 2312/2418 20010KT 9999 TS SCT022 FEW024CB FM 231700 24004KT FEW020 FEW022CB SCT130 BECMG 2320/2324 30005KT 9999 FEW019 FEW021CB SCT110 TEMPO 2402/2407 VRB12KT 9000 -TSRA SCT017 FEW019CB BKN090 BECMG 2408/2412 20007KT 8000 TSRA SCT020 FEW022CB BKN130 FM 241700 27005KT 9999 FEW019 FEW021CB

Decode

Destination Runways

ID Width Length Bearing (true) Bearing (mag) Surface Threshold Offset Overrun Length
12 150 ft / 46 m 8,014 ft / 2,443 m 121.34° 119.78° Asphalt 0 ft / 0 m 0 ft / 0 m
17 150 ft / 46 m 12,073 ft / 3,680 m 171.06° 169.50° Asphalt 0 ft / 0 m 0 ft / 0 m
30 150 ft / 46 m 8,014 ft / 2,443 m 301.34° 299.78° Asphalt 0 ft / 0 m 0 ft / 0 m
35 150 ft / 46 m 12,073 ft / 3,680 m 351.06° 349.50° Asphalt 0 ft / 0 m 0 ft / 0 m

Approach Navaids

Runway Type Ident Frequency Range Bearing (true) Bearing (mag) Slope Elevation
17 Localiser IEL 110.70 MHz 18 nm / 33 km 171.62° 170.07° - 3,754 ft / 1,144 m (AMSL)
17 Glidescope IEL 110.70 MHz 10 nm / 19 km 171.06° 169.50° 3.00° 3,780 ft / 1,152 m (AMSL)
17 DME IEL 110.70 MHz 18 nm / 33 km - - - 3,780 ft / 1,152 m (AMSL)